createdAt,value
2023-02-12T00:01:39.402Z,3.20
2023-02-12T00:04:06.576Z,3.10
2023-02-12T00:06:34.517Z,3.10
2023-02-12T00:09:01.672Z,3.10
2023-02-12T00:11:30.161Z,3.10
2023-02-12T00:13:57.923Z,3.10
2023-02-12T00:16:27.697Z,3.10
2023-02-12T00:18:56.319Z,3.10
2023-02-12T00:21:24.385Z,3.10
2023-02-12T00:23:52.589Z,3.10
2023-02-12T00:26:21.976Z,3.10
2023-02-12T00:28:52.108Z,3.10
2023-02-12T00:31:22.559Z,3.10
2023-02-12T00:33:50.075Z,3.10
2023-02-12T00:36:24.012Z,3.10
2023-02-12T00:38:55.957Z,3.10
2023-02-12T00:41:25.925Z,3.00
2023-02-12T00:43:53.328Z,3.00
2023-02-12T00:46:20.725Z,3.00
2023-02-12T00:48:48.120Z,2.90
2023-02-12T00:51:15.539Z,2.90
2023-02-12T00:53:42.923Z,2.90
2023-02-12T00:56:10.027Z,2.90
2023-02-12T00:58:37.150Z,2.90
2023-02-12T01:01:04.403Z,2.90
2023-02-12T01:03:31.524Z,2.90
2023-02-12T01:05:59.604Z,2.80
2023-02-12T01:08:26.734Z,2.90
2023-02-12T01:10:59.509Z,2.90
2023-02-12T01:13:27.711Z,2.90
2023-02-12T01:16:13.260Z,2.80
2023-02-12T01:18:40.343Z,2.80
2023-02-12T01:21:18.197Z,2.80
2023-02-12T01:23:46.318Z,2.80
2023-02-12T01:26:15.297Z,2.80
2023-02-12T01:28:44.714Z,2.70
2023-02-12T01:31:14.761Z,2.70
2023-02-12T01:33:42.258Z,2.70
2023-02-12T01:36:11.111Z,2.70
2023-02-12T01:38:38.141Z,2.70
2023-02-12T01:41:09.680Z,2.60
2023-02-12T01:43:39.374Z,2.60
2023-02-12T01:46:07.982Z,2.60
2023-02-12T01:48:45.455Z,2.60
2023-02-12T01:51:16.904Z,2.50
2023-02-12T01:53:52.557Z,2.60
2023-02-12T01:56:20.129Z,2.60
2023-02-12T01:58:48.671Z,2.60
2023-02-12T02:01:25.986Z,2.50
2023-02-12T02:03:57.433Z,2.50
2023-02-12T02:06:32.770Z,2.50
2023-02-12T02:09:02.001Z,2.40
2023-02-12T02:11:47.709Z,2.40
2023-02-12T02:14:33.149Z,2.40
2023-02-12T02:17:26.439Z,2.40
2023-02-12T02:20:03.788Z,2.40
2023-02-12T02:22:34.449Z,2.40
2023-02-12T02:25:18.909Z,2.40
2023-02-12T02:27:45.902Z,2.40
2023-02-12T02:30:26.500Z,2.40
2023-02-12T02:33:22.139Z,2.40
2023-02-12T02:36:00.957Z,2.40
2023-02-12T02:38:43.033Z,2.40
2023-02-12T02:41:26.015Z,2.30
2023-02-12T02:43:53.660Z,2.30
2023-02-12T02:46:35.025Z,2.30
2023-02-12T02:49:13.892Z,2.30
2023-02-12T02:51:45.290Z,2.20
2023-02-12T02:54:15.312Z,2.20
2023-02-12T02:56:47.656Z,2.20
2023-02-12T02:59:26.553Z,2.10
2023-02-12T03:02:09.100Z,2.10
2023-02-12T03:04:43.217Z,2.10
2023-02-12T03:07:21.972Z,2.10
2023-02-12T03:09:54.400Z,2.20
2023-02-12T03:12:29.092Z,2.10
2023-02-12T03:15:11.008Z,2.20
2023-02-12T03:17:45.331Z,2.20
2023-02-12T03:20:20.716Z,2.20
2023-02-12T03:22:54.728Z,2.10
2023-02-12T03:25:28.819Z,2.20
2023-02-12T03:28:07.062Z,2.10
2023-02-12T03:30:51.454Z,2.10
2023-02-12T03:33:37.523Z,2.00
2023-02-12T03:36:22.900Z,2.00
2023-02-12T03:38:53.753Z,2.00
2023-02-12T03:42:15.044Z,2.00
2023-02-12T03:44:52.552Z,2.00
2023-02-12T03:47:51.721Z,2.00
2023-02-12T03:50:40.774Z,2.00
2023-02-12T03:53:07.968Z,2.00
2023-02-12T03:55:40.300Z,2.00
2023-02-12T03:58:11.175Z,2.10
2023-02-12T04:00:39.136Z,2.00
2023-02-12T04:03:07.645Z,2.00
2023-02-12T04:05:34.684Z,2.00
2023-02-12T04:08:04.543Z,2.00
2023-02-12T04:11:06.576Z,2.10
2023-02-12T04:13:47.977Z,2.00
2023-02-12T04:16:41.588Z,2.00
2023-02-12T04:19:13.018Z,1.90
2023-02-12T04:22:18.422Z,1.90
2023-02-12T04:24:56.005Z,1.90
2023-02-12T04:27:48.047Z,2.00
2023-02-12T04:30:23.290Z,2.00
2023-02-12T04:33:00.928Z,2.00
2023-02-12T04:35:36.147Z,2.00
2023-02-12T04:38:21.402Z,2.00
2023-02-12T04:40:49.295Z,2.00
2023-02-12T04:43:30.748Z,1.90
2023-02-12T04:45:58.321Z,1.90
2023-02-12T04:48:25.683Z,1.90
2023-02-12T04:50:52.684Z,1.90
2023-02-12T04:53:20.035Z,1.90
2023-02-12T04:55:47.745Z,1.90
2023-02-12T04:58:14.856Z,1.90
2023-02-12T05:00:41.788Z,1.90
2023-02-12T05:03:09.014Z,1.90
2023-02-12T05:05:35.984Z,1.90
2023-02-12T05:08:02.945Z,1.90
2023-02-12T05:10:29.937Z,1.90
2023-02-12T05:12:56.959Z,1.80
2023-02-12T05:15:23.978Z,1.80
2023-02-12T05:17:51.001Z,1.80
2023-02-12T05:20:18.195Z,1.80
2023-02-12T05:22:45.345Z,1.80
2023-02-12T05:25:12.384Z,1.80
2023-02-12T05:27:40.561Z,1.80
2023-02-12T05:30:09.549Z,1.80
2023-02-12T05:32:36.645Z,1.80
2023-02-12T05:35:03.798Z,1.80
2023-02-12T05:37:31.613Z,1.80
2023-02-12T05:39:58.566Z,1.80
2023-02-12T05:42:25.576Z,1.80
2023-02-12T05:44:52.589Z,1.80
2023-02-12T05:47:19.604Z,1.80
2023-02-12T05:49:46.527Z,1.70
2023-02-12T05:52:13.565Z,1.70
2023-02-12T05:54:40.483Z,1.80
2023-02-12T05:57:07.631Z,1.80
2023-02-12T05:59:34.705Z,1.70
2023-02-12T06:02:08.036Z,1.70
2023-02-12T06:04:48.782Z,1.70
2023-02-12T06:07:34.464Z,1.60
2023-02-12T06:10:07.330Z,1.60
2023-02-12T06:12:39.620Z,1.60
2023-02-12T06:15:11.222Z,1.60
2023-02-12T06:17:40.829Z,1.60
2023-02-12T06:20:13.975Z,1.60
2023-02-12T06:22:45.526Z,1.70
2023-02-12T06:25:14.096Z,1.60
2023-02-12T06:27:45.246Z,1.60
2023-02-12T06:30:29.436Z,1.60
2023-02-12T06:33:10.031Z,1.60
2023-02-12T06:35:46.547Z,1.70
2023-02-12T06:38:20.283Z,1.60
2023-02-12T06:41:07.004Z,1.60
2023-02-12T06:43:39.004Z,1.60
2023-02-12T06:46:13.709Z,1.60
2023-02-12T06:48:43.032Z,1.60
2023-02-12T06:51:16.862Z,1.60
2023-02-12T06:53:50.388Z,1.60
2023-02-12T06:56:23.412Z,1.60
2023-02-12T06:59:00.477Z,1.60
2023-02-12T07:02:02.127Z,1.60
2023-02-12T07:04:48.846Z,1.60
2023-02-12T07:07:51.386Z,1.60
2023-02-12T07:10:44.276Z,1.70
2023-02-12T07:13:54.626Z,1.70
2023-02-12T07:16:41.811Z,1.70
2023-02-12T07:20:11.724Z,1.70
2023-02-12T07:22:56.499Z,1.80
2023-02-12T07:25:55.945Z,1.80
2023-02-12T07:28:37.648Z,1.80
2023-02-12T07:31:33.230Z,1.80
2023-02-12T07:34:10.733Z,1.80
2023-02-12T07:36:51.115Z,1.80
2023-02-12T07:39:33.120Z,1.80
2023-02-12T07:47:55.058Z,1.90
2023-02-12T07:56:31.875Z,2.00
2023-02-12T07:59:22.716Z,2.10
2023-02-12T08:01:59.717Z,2.10
2023-02-12T08:07:55.350Z,2.10
2023-02-12T08:10:37.746Z,2.10
2023-02-12T08:13:19.348Z,2.20
2023-02-12T08:16:17.131Z,2.30
2023-02-12T08:18:53.424Z,2.40
2023-02-12T08:21:34.825Z,2.60
2023-02-12T08:24:11.171Z,2.60
2023-02-12T08:27:01.029Z,2.80
2023-02-12T08:29:48.549Z,2.80
2023-02-12T08:35:46.635Z,3.00
2023-02-12T08:38:34.960Z,3.10
2023-02-12T08:41:27.671Z,3.20
2023-02-12T08:47:00.784Z,3.30
2023-02-12T08:49:46.714Z,3.40
2023-02-12T08:52:36.325Z,3.50
2023-02-12T09:02:22.027Z,3.70
2023-02-12T09:05:10.332Z,3.80
2023-02-12T09:07:37.270Z,3.90
2023-02-12T09:10:04.480Z,3.90
2023-02-12T09:12:31.427Z,4.00
2023-02-12T09:14:58.788Z,4.10
2023-02-12T09:17:27.580Z,4.20
2023-02-12T09:20:05.421Z,4.20
2023-02-12T09:22:42.560Z,4.30
2023-02-12T09:25:13.388Z,4.40
2023-02-12T09:27:41.477Z,4.50
2023-02-12T09:30:09.597Z,4.50
2023-02-12T09:32:37.191Z,4.60
2023-02-12T09:35:07.555Z,4.70
2023-02-12T09:37:36.754Z,4.70
2023-02-12T09:40:03.868Z,4.80
2023-02-12T09:42:50.151Z,4.90
2023-02-12T09:45:27.042Z,4.90
2023-02-12T09:48:42.424Z,5.00
2023-02-12T09:51:10.897Z,5.10
2023-02-12T09:53:45.998Z,5.10
2023-02-12T09:56:18.305Z,5.20
2023-02-12T09:58:53.149Z,5.30
2023-02-12T10:01:22.871Z,5.30
2023-02-12T10:03:52.625Z,5.40
2023-02-12T10:06:25.414Z,5.40
2023-02-12T10:09:09.789Z,5.40
2023-02-12T10:12:06.298Z,5.50
2023-02-12T10:15:02.645Z,5.50
2023-02-12T10:17:49.137Z,5.60
2023-02-12T10:20:22.035Z,5.60
2023-02-12T10:22:56.762Z,5.60
2023-02-12T10:25:36.253Z,5.70
2023-02-12T10:28:11.958Z,5.80
2023-02-12T10:30:46.558Z,5.80
2023-02-12T10:33:24.977Z,5.90
2023-02-12T10:36:04.713Z,5.90
2023-02-12T10:38:36.622Z,6.00
2023-02-12T10:41:03.649Z,6.00
2023-02-12T10:43:31.373Z,6.10
2023-02-12T10:45:58.581Z,6.20
2023-02-12T10:48:33.092Z,6.20
2023-02-12T10:51:28.944Z,6.30
2023-02-12T10:54:31.962Z,6.30
2023-02-12T10:57:08.195Z,6.40
2023-02-12T10:59:36.322Z,6.40
2023-02-12T11:02:04.546Z,6.50
2023-02-12T11:04:34.544Z,6.50
2023-02-12T11:07:06.165Z,6.60
2023-02-12T11:09:46.585Z,6.70
2023-02-12T11:12:21.404Z,6.70
2023-02-12T11:14:56.291Z,6.80
2023-02-12T11:17:39.454Z,6.80
2023-02-12T11:20:19.581Z,6.90
2023-02-12T11:22:59.113Z,6.90
2023-02-12T11:25:30.243Z,7.00
2023-02-12T11:28:05.038Z,7.00
2023-02-12T11:30:34.705Z,7.00
2023-02-12T11:33:32.893Z,7.10
2023-02-12T11:36:23.589Z,7.10
2023-02-12T11:38:55.831Z,7.20
2023-02-12T11:41:38.470Z,7.20
2023-02-12T11:44:24.726Z,7.30
2023-02-12T11:47:09.563Z,7.30
2023-02-12T11:49:44.376Z,7.40
2023-02-12T11:52:24.285Z,7.50
2023-02-12T11:54:57.168Z,7.50
2023-02-12T11:57:39.619Z,7.60
2023-02-12T12:00:16.266Z,7.60
2023-02-12T12:11:00.664Z,7.80
2023-02-12T12:13:45.074Z,7.90
2023-02-12T12:17:06.965Z,8.00
2023-02-12T12:24:37.831Z,8.20
2023-02-12T12:27:24.716Z,8.20
2023-02-12T12:30:06.818Z,8.30
2023-02-12T12:32:38.717Z,8.40
2023-02-12T12:35:11.108Z,8.40
2023-02-12T12:37:52.445Z,8.50
2023-02-12T12:40:38.413Z,8.50
2023-02-12T12:43:27.449Z,8.50
2023-02-12T12:46:01.293Z,8.50
2023-02-12T12:48:44.520Z,8.70
2023-02-12T12:51:30.805Z,8.70
2023-02-12T12:54:20.407Z,8.70
2023-02-12T12:57:22.705Z,8.80
2023-02-12T13:00:19.840Z,8.80
2023-02-12T13:03:05.824Z,8.80
2023-02-12T13:06:10.928Z,8.90
2023-02-12T13:08:57.502Z,8.90
2023-02-12T13:11:42.510Z,8.90
2023-02-12T13:14:28.763Z,8.90
2023-02-12T13:17:41.484Z,9.00
2023-02-12T13:20:31.848Z,9.00
2023-02-12T13:23:14.061Z,9.00
2023-02-12T13:26:03.669Z,9.10
2023-02-12T13:28:46.650Z,9.10
2023-02-12T13:31:32.409Z,9.10
2023-02-12T13:34:04.485Z,9.20
2023-02-12T13:36:36.099Z,9.20
2023-02-12T13:39:11.169Z,9.30
2023-02-12T13:41:45.430Z,9.30
2023-02-12T13:44:33.292Z,9.30
2023-02-12T13:47:53.651Z,9.30
2023-02-12T13:50:42.504Z,9.40
2023-02-12T13:53:32.545Z,9.40
2023-02-12T13:56:25.959Z,9.50
2023-02-12T13:59:01.074Z,9.50
2023-02-12T14:01:49.471Z,9.60
2023-02-12T14:04:25.497Z,9.60
2023-02-12T14:07:01.494Z,9.60
2023-02-12T14:09:51.631Z,9.70
2023-02-12T14:12:34.394Z,9.80
2023-02-12T14:15:07.875Z,9.70
2023-02-12T14:17:34.884Z,9.70
2023-02-12T14:20:25.033Z,9.80
2023-02-12T14:22:52.036Z,9.80
2023-02-12T14:25:25.376Z,9.80
2023-02-12T14:27:58.880Z,9.90
2023-02-12T14:30:40.351Z,9.90
2023-02-12T14:33:25.229Z,9.90
2023-02-12T14:36:16.988Z,10.00
2023-02-12T14:38:47.788Z,9.90
2023-02-12T14:41:34.925Z,10.00
2023-02-12T14:44:23.400Z,10.00
2023-02-12T14:46:57.404Z,10.00
2023-02-12T14:49:44.066Z,10.00
2023-02-12T14:52:22.690Z,10.00
2023-02-12T14:55:08.544Z,10.10
2023-02-12T14:57:39.580Z,10.10
2023-02-12T15:00:41.773Z,10.10
2023-02-12T15:03:19.496Z,10.10
2023-02-12T15:06:44.989Z,10.10
2023-02-12T15:09:46.886Z,10.10
2023-02-12T15:12:33.254Z,10.10
2023-02-12T15:15:22.196Z,10.20
2023-02-12T15:18:16.087Z,10.20
2023-02-12T15:21:16.400Z,10.20
2023-02-12T15:23:45.298Z,10.20
2023-02-12T15:26:23.221Z,10.20
2023-02-12T15:28:53.644Z,10.20
2023-02-12T15:31:27.321Z,10.20
2023-02-12T15:33:57.006Z,10.20
2023-02-12T15:36:26.842Z,10.30
2023-02-12T15:39:06.735Z,10.30
2023-02-12T15:41:33.970Z,10.30
2023-02-12T15:44:03.945Z,10.30
2023-02-12T15:46:32.768Z,10.30
2023-02-12T15:49:19.389Z,10.30
2023-02-12T15:53:02.430Z,10.30
2023-02-12T15:55:36.242Z,10.20
2023-02-12T15:58:03.378Z,10.20
2023-02-12T16:00:44.502Z,10.10
2023-02-12T16:03:22.214Z,10.10
2023-02-12T16:05:50.895Z,10.10
2023-02-12T16:08:21.556Z,10.00
2023-02-12T16:10:52.267Z,9.90
2023-02-12T16:13:41.291Z,9.90
2023-02-12T16:16:14.034Z,9.80
2023-02-12T16:18:43.557Z,9.80
2023-02-12T16:21:22.403Z,9.70
2023-02-12T16:23:52.085Z,9.60
2023-02-12T16:26:25.126Z,9.50
2023-02-12T16:28:57.693Z,9.50
2023-02-12T16:31:27.515Z,9.40
2023-02-12T16:33:59.245Z,9.30
2023-02-12T16:36:26.558Z,9.20
2023-02-12T16:39:05.613Z,9.10
2023-02-12T16:41:56.901Z,9.10
2023-02-12T16:44:31.507Z,9.00
2023-02-12T16:47:01.468Z,8.90
2023-02-12T16:49:28.941Z,8.80
2023-02-12T16:52:20.982Z,8.70
2023-02-12T16:54:48.722Z,8.60
2023-02-12T16:57:16.004Z,8.50
2023-02-12T16:59:47.431Z,8.40
2023-02-12T17:02:16.201Z,8.40
2023-02-12T17:04:43.600Z,8.30
2023-02-12T17:07:21.017Z,8.20
2023-02-12T17:09:48.347Z,8.20
2023-02-12T17:12:15.836Z,8.10
2023-02-12T17:14:43.087Z,8.10
2023-02-12T17:17:10.323Z,8.00
2023-02-12T17:19:38.057Z,7.90
2023-02-12T17:22:20.280Z,7.90
2023-02-12T17:24:51.479Z,7.80
2023-02-12T17:27:19.916Z,7.80
2023-02-12T17:29:48.290Z,7.70
2023-02-12T17:32:16.382Z,7.70
2023-02-12T17:34:48.915Z,7.70
2023-02-12T17:37:22.459Z,7.70
2023-02-12T17:39:50.650Z,7.60
2023-02-12T17:42:18.376Z,7.60
2023-02-12T17:44:45.437Z,7.50
2023-02-12T17:47:12.505Z,7.50
2023-02-12T17:49:40.450Z,7.40
2023-02-12T17:52:07.668Z,7.40
2023-02-12T17:54:37.931Z,7.30
2023-02-12T17:57:07.972Z,7.30
2023-02-12T17:59:37.237Z,7.30
2023-02-12T18:02:10.145Z,7.30
2023-02-12T18:04:49.488Z,7.20
2023-02-12T18:07:17.625Z,7.30
2023-02-12T18:09:56.764Z,7.10
2023-02-12T18:12:23.962Z,7.10
2023-02-12T18:14:51.234Z,7.10
2023-02-12T18:17:18.761Z,7.00
2023-02-12T18:19:45.876Z,7.00
2023-02-12T18:22:13.022Z,7.00
2023-02-12T18:24:41.445Z,7.00
2023-02-12T18:27:11.026Z,6.90
2023-02-12T18:29:38.340Z,6.90
2023-02-12T18:32:07.972Z,6.90
2023-02-12T18:34:36.380Z,6.90
2023-02-12T18:37:04.168Z,6.80
2023-02-12T18:39:31.350Z,6.80
2023-02-12T18:41:58.385Z,6.70
2023-02-12T18:44:25.437Z,6.70
2023-02-12T18:46:59.386Z,6.70
2023-02-12T18:49:30.218Z,6.70
2023-02-12T18:51:57.962Z,6.70
2023-02-12T18:54:25.127Z,6.70
2023-02-12T18:56:53.373Z,6.70
2023-02-12T18:59:22.218Z,6.60
2023-02-12T19:01:50.861Z,6.60
2023-02-12T19:04:20.117Z,6.60
2023-02-12T19:06:49.928Z,6.60
2023-02-12T19:09:20.251Z,6.50
2023-02-12T19:11:49.139Z,6.50
2023-02-12T19:14:18.446Z,6.40
2023-02-12T19:16:46.139Z,6.40
2023-02-12T19:19:14.861Z,6.30
2023-02-12T19:21:42.113Z,6.30
2023-02-12T19:24:12.603Z,6.20
2023-02-12T19:26:40.029Z,6.20
2023-02-12T19:29:07.372Z,6.20
2023-02-12T19:31:40.839Z,6.10
2023-02-12T19:34:16.509Z,6.10
2023-02-12T19:36:44.381Z,6.10
2023-02-12T19:39:14.598Z,6.10
2023-02-12T19:41:42.087Z,6.10
2023-02-12T19:44:17.215Z,6.00
2023-02-12T19:46:45.664Z,6.00
2023-02-12T19:49:22.232Z,6.00
2023-02-12T19:51:49.863Z,6.00
2023-02-12T19:54:18.734Z,6.00
2023-02-12T19:56:46.195Z,6.00
2023-02-12T19:59:15.265Z,6.00
2023-02-12T20:01:43.762Z,6.00
2023-02-12T20:04:16.516Z,6.00
2023-02-12T20:06:45.659Z,5.90
2023-02-12T20:09:15.818Z,5.90
2023-02-12T20:11:43.033Z,5.90
2023-02-12T20:14:13.376Z,5.90
2023-02-12T20:16:43.821Z,5.90
2023-02-12T20:19:14.773Z,5.90
2023-02-12T20:21:42.577Z,5.80
2023-02-12T20:24:09.676Z,5.90
2023-02-12T20:26:37.883Z,5.80
2023-02-12T20:29:05.689Z,5.80
2023-02-12T20:31:35.994Z,5.70
2023-02-12T20:34:08.503Z,5.70
2023-02-12T20:36:38.681Z,5.70
2023-02-12T20:39:07.825Z,5.60
2023-02-12T20:41:37.093Z,5.60
2023-02-12T20:44:06.362Z,5.60
2023-02-12T20:46:36.225Z,5.60
2023-02-12T20:49:03.823Z,5.60
2023-02-12T20:51:31.285Z,5.60
2023-02-12T20:54:01.041Z,5.50
2023-02-12T20:56:31.395Z,5.50
2023-02-12T20:58:59.000Z,5.50
2023-02-12T21:01:35.399Z,5.50
2023-02-12T21:04:05.854Z,5.50
2023-02-12T21:06:33.552Z,5.50
2023-02-12T21:09:00.899Z,5.50
2023-02-12T21:11:29.133Z,5.50
2023-02-12T21:14:02.169Z,5.50
2023-02-12T21:16:38.566Z,5.50
2023-02-12T21:19:05.560Z,5.50
2023-02-12T21:21:35.282Z,5.50
2023-02-12T21:24:06.299Z,5.50
2023-02-12T21:26:34.568Z,5.50
2023-02-12T21:29:03.423Z,5.50
2023-02-12T21:31:31.823Z,5.40
2023-02-12T21:34:00.624Z,5.40
2023-02-12T21:36:30.292Z,5.40
2023-02-12T21:38:58.043Z,5.40
2023-02-12T21:41:27.768Z,5.30
2023-02-12T21:43:58.974Z,5.30
2023-02-12T21:46:26.374Z,5.20
2023-02-12T21:48:53.680Z,5.20
2023-02-12T21:51:29.688Z,5.20
2023-02-12T21:54:00.258Z,5.10
2023-02-12T21:56:28.249Z,5.10
2023-02-12T21:58:55.453Z,5.10
2023-02-12T22:01:28.632Z,5.00
2023-02-12T22:03:55.672Z,5.10
2023-02-12T22:06:24.719Z,5.10
2023-02-12T22:08:53.737Z,5.10
2023-02-12T22:11:22.013Z,5.10
2023-02-12T22:13:49.165Z,5.10
2023-02-12T22:16:17.214Z,5.10
2023-02-12T22:18:44.814Z,5.10
2023-02-12T22:21:13.813Z,5.20
2023-02-12T22:23:41.948Z,5.10
2023-02-12T22:26:20.632Z,5.10
2023-02-12T22:28:51.239Z,5.10
2023-02-12T22:31:21.962Z,5.10
2023-02-12T22:33:55.147Z,5.10
2023-02-12T22:36:22.158Z,5.00
2023-02-12T22:38:49.459Z,5.00
2023-02-12T22:41:17.053Z,4.90
2023-02-12T22:43:44.546Z,4.80
2023-02-12T22:46:13.277Z,4.80
2023-02-12T22:48:42.253Z,4.70
2023-02-12T22:51:11.117Z,4.70
2023-02-12T22:53:38.314Z,4.70
2023-02-12T22:56:06.868Z,4.70
2023-02-12T22:58:34.516Z,4.70
2023-02-12T23:01:10.921Z,4.70
2023-02-12T23:03:38.043Z,4.70
2023-02-12T23:06:07.275Z,4.70
2023-02-12T23:08:35.472Z,4.70
2023-02-12T23:11:02.532Z,4.70
2023-02-12T23:13:30.370Z,4.70
2023-02-12T23:15:58.253Z,4.70
2023-02-12T23:18:25.894Z,4.70
2023-02-12T23:20:53.795Z,4.70
2023-02-12T23:23:21.681Z,4.70
2023-02-12T23:25:49.539Z,4.70
2023-02-12T23:28:17.559Z,4.60
2023-02-12T23:30:44.584Z,4.60
2023-02-12T23:33:11.595Z,4.50
2023-02-12T23:35:38.700Z,4.50
2023-02-12T23:38:06.791Z,4.50
2023-02-12T23:40:34.563Z,4.40
2023-02-12T23:43:01.736Z,4.40
2023-02-12T23:45:29.092Z,4.40
2023-02-12T23:47:56.694Z,4.50
2023-02-12T23:50:24.287Z,4.50
2023-02-12T23:52:51.624Z,4.50
2023-02-12T23:55:20.441Z,4.50
2023-02-12T23:57:48.067Z,4.60
